sensor_id;sensor_type;location;lat;lon;timestamp;pressure;altitude;pressure_sealevel;temperature;humidity
19831;BME280;10076;52.008;4.708;2023-05-29T00:00:15;102453.78;;;14.99;100.00
19831;BME280;10076;52.008;4.708;2023-05-29T00:02:43;102455.28;;;15.03;100.00
19831;BME280;10076;52.008;4.708;2023-05-29T00:05:11;102450.81;;;15.03;100.00
19831;BME280;10076;52.008;4.708;2023-05-29T00:07:37;102448.44;;;15.13;100.00
19831;BME280;10076;52.008;4.708;2023-05-29T00:10:04;102454.06;;;15.22;100.00
19831;BME280;10076;52.008;4.708;2023-05-29T00:12:30;102447.28;;;15.30;100.00
19831;BME280;10076;52.008;4.708;2023-05-29T00:14:55;102444.25;;;15.09;100.00
19831;BME280;10076;52.008;4.708;2023-05-29T00:17:21;102443.97;;;15.13;100.00
19831;BME280;10076;52.008;4.708;2023-05-29T00:19:46;102447.38;;;15.15;100.00
19831;BME280;10076;52.008;4.708;2023-05-29T00:22:11;102444.25;;;15.09;100.00
19831;BME280;10076;52.008;4.708;2023-05-29T00:24:37;102448.13;;;15.17;100.00
19831;BME280;10076;52.008;4.708;2023-05-29T00:27:03;102449.19;;;15.01;100.00
19831;BME280;10076;52.008;4.708;2023-05-29T00:29:28;102444.75;;;15.01;100.00
19831;BME280;10076;52.008;4.708;2023-05-29T00:31:54;102451.41;;;14.94;100.00
19831;BME280;10076;52.008;4.708;2023-05-29T00:34:19;102453.13;;;14.95;100.00
19831;BME280;10076;52.008;4.708;2023-05-29T00:36:45;102462.03;;;14.80;100.00
19831;BME280;10076;52.008;4.708;2023-05-29T00:39:11;102460.63;;;14.89;100.00
19831;BME280;10076;52.008;4.708;2023-05-29T00:41:36;102466.97;;;14.86;100.00
19831;BME280;10076;52.008;4.708;2023-05-29T00:44:02;102474.97;;;15.00;100.00
19831;BME280;10076;52.008;4.708;2023-05-29T00:46:28;102471.34;;;14.73;100.00
19831;BME280;10076;52.008;4.708;2023-05-29T00:48:55;102479.63;;;14.69;100.00
19831;BME280;10076;52.008;4.708;2023-05-29T00:51:21;102482.63;;;14.49;100.00
19831;BME280;10076;52.008;4.708;2023-05-29T00:53:48;102482.16;;;14.56;100.00
19831;BME280;10076;52.008;4.708;2023-05-29T00:56:13;102487.13;;;14.49;100.00
19831;BME280;10076;52.008;4.708;2023-05-29T00:58:39;102488.72;;;14.51;100.00
19831;BME280;10076;52.008;4.708;2023-05-29T01:01:06;102484.94;;;14.55;100.00
19831;BME280;10076;52.008;4.708;2023-05-29T01:03:31;102488.22;;;14.45;100.00
19831;BME280;10076;52.008;4.708;2023-05-29T01:05:58;102492.59;;;14.46;100.00
19831;BME280;10076;52.008;4.708;2023-05-29T01:08:24;102495.81;;;14.50;100.00
19831;BME280;10076;52.008;4.708;2023-05-29T01:10:51;102491.28;;;14.52;100.00
19831;BME280;10076;52.008;4.708;2023-05-29T01:13:27;102493.16;;;14.37;100.00
19831;BME280;10076;52.008;4.708;2023-05-29T01:18:57;102489.25;;;14.28;100.00
19831;BME280;10076;52.008;4.708;2023-05-29T01:24:10;102499.22;;;14.39;100.00
19831;BME280;10076;52.008;4.708;2023-05-29T01:26:49;102498.53;;;14.21;100.00
19831;BME280;10076;52.008;4.708;2023-05-29T01:29:19;102504.63;;;14.23;100.00
19831;BME280;10076;52.008;4.708;2023-05-29T01:31:47;102501.28;;;14.20;100.00
19831;BME280;10076;52.008;4.708;2023-05-29T01:34:13;102513.31;;;14.11;100.00
19831;BME280;10076;52.008;4.708;2023-05-29T01:36:38;102502.59;;;14.13;100.00
19831;BME280;10076;52.008;4.708;2023-05-29T01:39:04;102510.03;;;14.06;100.00
19831;BME280;10076;52.008;4.708;2023-05-29T01:41:31;102506.28;;;14.10;100.00
19831;BME280;10076;52.008;4.708;2023-05-29T01:43:58;102509.38;;;14.03;100.00
19831;BME280;10076;52.008;4.708;2023-05-29T01:46:24;102513.13;;;13.99;100.00
19831;BME280;10076;52.008;4.708;2023-05-29T01:48:51;102511.25;;;14.01;100.00
19831;BME280;10076;52.008;4.708;2023-05-29T01:51:16;102515.03;;;13.97;100.00
19831;BME280;10076;52.008;4.708;2023-05-29T01:53:42;102515.97;;;13.96;100.00
19831;BME280;10076;52.008;4.708;2023-05-29T01:56:09;102517.97;;;13.77;100.00
19831;BME280;10076;52.008;4.708;2023-05-29T01:58:35;102520.84;;;13.88;100.00
19831;BME280;10076;52.008;4.708;2023-05-29T02:01:02;102518.78;;;13.93;100.00
19831;BME280;10076;52.008;4.708;2023-05-29T02:03:29;102523.13;;;13.80;100.00
19831;BME280;10076;52.008;4.708;2023-05-29T02:05:58;102518.84;;;13.78;100.00
19831;BME280;10076;52.008;4.708;2023-05-29T02:08:24;102523.75;;;13.83;100.00
19831;BME280;10076;52.008;4.708;2023-05-29T02:10:49;102526.13;;;13.74;100.00
19831;BME280;10076;52.008;4.708;2023-05-29T02:13:15;102527.91;;;13.74;100.00
19831;BME280;10076;52.008;4.708;2023-05-29T02:15:41;102527.38;;;13.82;100.00
19831;BME280;10076;52.008;4.708;2023-05-29T02:18:09;102528.41;;;13.80;100.00
19831;BME280;10076;52.008;4.708;2023-05-29T02:20:37;102523.94;;;13.96;100.00
19831;BME280;10076;52.008;4.708;2023-05-29T02:23:02;102528.41;;;13.80;100.00
19831;BME280;10076;52.008;4.708;2023-05-29T02:25:27;102520.63;;;13.62;100.00
19831;BME280;10076;52.008;4.708;2023-05-29T02:27:53;102519.44;;;13.67;100.00
19831;BME280;10076;52.008;4.708;2023-05-29T02:30:18;102521.56;;;13.76;100.00
19831;BME280;10076;52.008;4.708;2023-05-29T02:32:43;102526.81;;;13.62;100.00
19831;BME280;10076;52.008;4.708;2023-05-29T02:35:08;102514.22;;;13.66;100.00
19831;BME280;10076;52.008;4.708;2023-05-29T02:37:34;102516.19;;;13.62;100.00
19831;BME280;10076;52.008;4.708;2023-05-29T02:39:59;102519.00;;;13.59;100.00
19831;BME280;10076;52.008;4.708;2023-05-29T02:42:24;102518.41;;;13.39;100.00
19831;BME280;10076;52.008;4.708;2023-05-29T02:44:50;102521.59;;;13.45;100.00
19831;BME280;10076;52.008;4.708;2023-05-29T02:47:15;102515.75;;;13.39;100.00
19831;BME280;10076;52.008;4.708;2023-05-29T02:49:41;102517.34;;;13.26;100.00
19831;BME280;10076;52.008;4.708;2023-05-29T02:52:06;102517.31;;;13.43;100.00
19831;BME280;10076;52.008;4.708;2023-05-29T02:54:31;102522.88;;;13.54;100.00
19831;BME280;10076;52.008;4.708;2023-05-29T02:56:56;102521.75;;;13.42;100.00
19831;BME280;10076;52.008;4.708;2023-05-29T02:59:22;102536.16;;;13.54;100.00
19831;BME280;10076;52.008;4.708;2023-05-29T03:01:47;102532.88;;;13.33;100.00
19831;BME280;10076;52.008;4.708;2023-05-29T03:04:14;102529.69;;;13.42;100.00
19831;BME280;10076;52.008;4.708;2023-05-29T03:06:39;102530.50;;;13.44;100.00
19831;BME280;10076;52.008;4.708;2023-05-29T03:09:04;102529.34;;;13.33;100.00
19831;BME280;10076;52.008;4.708;2023-05-29T03:11:31;102534.06;;;13.28;100.00
19831;BME280;10076;52.008;4.708;2023-05-29T03:13:56;102532.88;;;13.33;100.00
19831;BME280;10076;52.008;4.708;2023-05-29T03:16:21;102536.72;;;13.28;100.00
19831;BME280;10076;52.008;4.708;2023-05-29T03:18:47;102534.84;;;13.30;100.00
19831;BME280;10076;52.008;4.708;2023-05-29T03:21:12;102539.19;;;13.15;100.00
19831;BME280;10076;52.008;4.708;2023-05-29T03:23:38;102534.84;;;13.30;100.00
19831;BME280;10076;52.008;4.708;2023-05-29T03:26:03;102529.66;;;13.11;100.00
19831;BME280;10076;52.008;4.708;2023-05-29T03:28:29;102530.28;;;13.16;100.00
19831;BME280;10076;52.008;4.708;2023-05-29T03:30:54;102525.66;;;13.20;100.00
19831;BME280;10076;52.008;4.708;2023-05-29T03:33:20;102533.38;;;13.24;100.00
19831;BME280;10076;52.008;4.708;2023-05-29T03:35:45;102525.84;;;13.32;100.00
19831;BME280;10076;52.008;4.708;2023-05-29T03:38:12;102524.13;;;13.31;100.00
19831;BME280;10076;52.008;4.708;2023-05-29T03:40:37;102524.22;;;13.14;100.00
19831;BME280;10076;52.008;4.708;2023-05-29T03:43:02;102529.19;;;13.20;100.00
19831;BME280;10076;52.008;4.708;2023-05-29T03:45:28;102532.84;;;13.18;100.00
19831;BME280;10076;52.008;4.708;2023-05-29T03:47:53;102536.38;;;13.34;100.00
19831;BME280;10076;52.008;4.708;2023-05-29T03:50:18;102541.94;;;13.14;100.00
19831;BME280;10076;52.008;4.708;2023-05-29T03:52:43;102545.09;;;13.20;100.00
19831;BME280;10076;52.008;4.708;2023-05-29T03:55:10;102542.59;;;13.02;100.00
19831;BME280;10076;52.008;4.708;2023-05-29T03:57:39;102539.00;;;13.18;100.00
19831;BME280;10076;52.008;4.708;2023-05-29T04:00:07;102539.75;;;13.05;100.00
19831;BME280;10076;52.008;4.708;2023-05-29T04:02:33;102547.63;;;13.07;100.00
19831;BME280;10076;52.008;4.708;2023-05-29T04:04:58;102538.16;;;13.18;100.00
19831;BME280;10076;52.008;4.708;2023-05-29T04:07:23;102536.63;;;13.14;100.00
19831;BME280;10076;52.008;4.708;2023-05-29T04:09:49;102542.44;;;13.20;100.00
19831;BME280;10076;52.008;4.708;2023-05-29T04:12:14;102543.25;;;13.06;100.00
19831;BME280;10076;52.008;4.708;2023-05-29T04:14:40;102549.00;;;13.13;100.00
19831;BME280;10076;52.008;4.708;2023-05-29T04:17:06;102545.69;;;13.25;100.00
19831;BME280;10076;52.008;4.708;2023-05-29T04:19:31;102551.19;;;13.38;100.00
19831;BME280;10076;52.008;4.708;2023-05-29T04:21:56;102545.25;;;13.17;100.00
19831;BME280;10076;52.008;4.708;2023-05-29T04:24:22;102555.72;;;13.20;100.00
19831;BME280;10076;52.008;4.708;2023-05-29T04:26:47;102556.72;;;13.18;100.00
19831;BME280;10076;52.008;4.708;2023-05-29T04:29:12;102556.81;;;13.16;100.00
19831;BME280;10076;52.008;4.708;2023-05-29T04:31:38;102564.03;;;13.30;100.00
19831;BME280;10076;52.008;4.708;2023-05-29T04:34:04;102566.44;;;13.34;100.00
19831;BME280;10076;52.008;4.708;2023-05-29T04:36:30;102564.81;;;13.47;100.00
19831;BME280;10076;52.008;4.708;2023-05-29T04:38:57;102568.06;;;13.52;100.00
19831;BME280;10076;52.008;4.708;2023-05-29T04:41:23;102566.97;;;13.56;100.00
19831;BME280;10076;52.008;4.708;2023-05-29T04:43:55;102575.88;;;13.71;100.00
19831;BME280;10076;52.008;4.708;2023-05-29T04:46:22;102575.78;;;13.72;100.00
19831;BME280;10076;52.008;4.708;2023-05-29T04:48:47;102580.31;;;13.70;100.00
19831;BME280;10076;52.008;4.708;2023-05-29T04:51:12;102572.94;;;13.75;100.00
19831;BME280;10076;52.008;4.708;2023-05-29T04:53:39;102579.81;;;13.79;100.00
19831;BME280;10076;52.008;4.708;2023-05-29T04:56:06;102587.00;;;13.77;100.00
19831;BME280;10076;52.008;4.708;2023-05-29T04:58:31;102586.50;;;13.86;100.00
19831;BME280;10076;52.008;4.708;2023-05-29T05:00:56;102582.38;;;13.96;100.00
19831;BME280;10076;52.008;4.708;2023-05-29T05:03:23;102581.59;;;13.94;100.00
19831;BME280;10076;52.008;4.708;2023-05-29T05:05:50;102579.53;;;13.83;100.00
19831;BME280;10076;52.008;4.708;2023-05-29T05:08:17;102590.09;;;14.00;100.00
19831;BME280;10076;52.008;4.708;2023-05-29T05:10:42;102595.13;;;14.05;100.00
19831;BME280;10076;52.008;4.708;2023-05-29T05:13:07;102588.97;;;14.20;100.00
19831;BME280;10076;52.008;4.708;2023-05-29T05:15:32;102583.53;;;14.06;100.00
19831;BME280;10076;52.008;4.708;2023-05-29T05:17:58;102584.31;;;14.08;100.00
19831;BME280;10076;52.008;4.708;2023-05-29T05:20:23;102590.25;;;14.13;100.00
19831;BME280;10076;52.008;4.708;2023-05-29T05:22:48;102600.97;;;14.27;100.00
19831;BME280;10076;52.008;4.708;2023-05-29T05:25:13;102598.00;;;14.31;100.00
19831;BME280;10076;52.008;4.708;2023-05-29T05:27:39;102593.00;;;14.27;100.00
19831;BME280;10076;52.008;4.708;2023-05-29T05:30:05;102595.69;;;14.41;100.00
19831;BME280;10076;52.008;4.708;2023-05-29T05:32:32;102598.25;;;14.42;100.00
19831;BME280;10076;52.008;4.708;2023-05-29T05:34:57;102600.38;;;14.51;100.00
19831;BME280;10076;52.008;4.708;2023-05-29T05:37:22;102606.59;;;14.65;100.00
19831;BME280;10076;52.008;4.708;2023-05-29T05:39:49;102606.19;;;14.57;100.00
19831;BME280;10076;52.008;4.708;2023-05-29T05:42:15;102596.50;;;14.56;100.00
19831;BME280;10076;52.008;4.708;2023-05-29T05:44:41;102599.38;;;14.67;100.00
19831;BME280;10076;52.008;4.708;2023-05-29T05:47:06;102605.06;;;14.61;100.00
19831;BME280;10076;52.008;4.708;2023-05-29T05:49:31;102603.78;;;14.82;100.00
19831;BME280;10076;52.008;4.708;2023-05-29T05:51:56;102602.47;;;15.03;100.00
19831;BME280;10076;52.008;4.708;2023-05-29T05:54:22;102606.00;;;15.04;100.00
19831;BME280;10076;52.008;4.708;2023-05-29T05:56:47;102619.31;;;15.04;100.00
19831;BME280;10076;52.008;4.708;2023-05-29T05:59:12;102619.41;;;15.16;100.00
19831;BME280;10076;52.008;4.708;2023-05-29T06:01:38;102612.94;;;15.20;100.00
19831;BME280;10076;52.008;4.708;2023-05-29T06:04:04;102609.25;;;15.22;100.00
19831;BME280;10076;52.008;4.708;2023-05-29T06:06:29;102619.84;;;15.24;100.00
19831;BME280;10076;52.008;4.708;2023-05-29T06:08:56;102625.53;;;15.32;100.00
19831;BME280;10076;52.008;4.708;2023-05-29T06:11:23;102620.41;;;15.29;100.00
19831;BME280;10076;52.008;4.708;2023-05-29T06:13:48;102630.97;;;15.44;100.00
19831;BME280;10076;52.008;4.708;2023-05-29T06:16:14;102630.28;;;15.41;100.00
19831;BME280;10076;52.008;4.708;2023-05-29T06:18:39;102628.91;;;15.20;100.00
19831;BME280;10076;52.008;4.708;2023-05-29T06:21:05;102629.13;;;15.31;100.00
19831;BME280;10076;52.008;4.708;2023-05-29T06:23:32;102620.97;;;15.48;100.00
19831;BME280;10076;52.008;4.708;2023-05-29T06:25:58;102616.56;;;15.61;100.00
19831;BME280;10076;52.008;4.708;2023-05-29T06:28:24;102620.09;;;15.47;100.00
19831;BME280;10076;52.008;4.708;2023-05-29T06:30:49;102622.94;;;15.58;100.00
19831;BME280;10076;52.008;4.708;2023-05-29T06:33:15;102624.50;;;15.62;100.00
19831;BME280;10076;52.008;4.708;2023-05-29T06:35:40;102616.56;;;15.61;100.00
19831;BME280;10076;52.008;4.708;2023-05-29T06:38:05;102615.97;;;15.84;100.00
19831;BME280;10076;52.008;4.708;2023-05-29T06:40:31;102614.63;;;15.90;100.00
19831;BME280;10076;52.008;4.708;2023-05-29T06:42:56;102627.75;;;15.93;100.00
19831;BME280;10076;52.008;4.708;2023-05-29T06:45:21;102623.91;;;16.11;100.00
19831;BME280;10076;52.008;4.708;2023-05-29T06:47:47;102630.09;;;16.12;100.00
19831;BME280;10076;52.008;4.708;2023-05-29T06:50:13;102624.31;;;16.05;100.00
19831;BME280;10076;52.008;4.708;2023-05-29T06:52:39;102635.47;;;16.24;100.00
19831;BME280;10076;52.008;4.708;2023-05-29T06:55:05;102633.19;;;16.32;100.00
19831;BME280;10076;52.008;4.708;2023-05-29T06:57:30;102635.69;;;16.48;100.00
19831;BME280;10076;52.008;4.708;2023-05-29T06:59:56;102633.06;;;16.60;100.00
19831;BME280;10076;52.008;4.708;2023-05-29T07:02:21;102646.09;;;16.64;100.00
19831;BME280;10076;52.008;4.708;2023-05-29T07:04:46;102637.63;;;16.58;100.00
19831;BME280;10076;52.008;4.708;2023-05-29T07:07:12;102646.22;;;16.75;100.00
19831;BME280;10076;52.008;4.708;2023-05-29T07:09:37;102630.56;;;16.83;100.00
19831;BME280;10076;52.008;4.708;2023-05-29T07:12:05;102640.34;;;16.83;100.00
19831;BME280;10076;52.008;4.708;2023-05-29T07:14:30;102640.19;;;16.98;100.00
19831;BME280;10076;52.008;4.708;2023-05-29T07:16:56;102638.69;;;16.94;100.00
19831;BME280;10076;52.008;4.708;2023-05-29T07:19:21;102639.84;;;16.90;100.00
19831;BME280;10076;52.008;4.708;2023-05-29T07:21:46;102640.59;;;17.05;100.00
19831;BME280;10076;52.008;4.708;2023-05-29T07:24:11;102641.47;;;17.18;100.00
19831;BME280;10076;52.008;4.708;2023-05-29T07:26:37;102645.97;;;17.17;100.00
19831;BME280;10076;52.008;4.708;2023-05-29T07:29:02;102646.50;;;17.22;100.00
19831;BME280;10076;52.008;4.708;2023-05-29T07:31:27;102645.56;;;17.35;100.00
19831;BME280;10076;52.008;4.708;2023-05-29T07:33:54;102662.00;;;17.42;100.00
19831;BME280;10076;52.008;4.708;2023-05-29T07:36:20;102660.97;;;17.44;100.00
19831;BME280;10076;52.008;4.708;2023-05-29T07:38:45;102665.97;;;17.49;100.00
19831;BME280;10076;52.008;4.708;2023-05-29T07:41:11;102650.13;;;17.58;100.00
19831;BME280;10076;52.008;4.708;2023-05-29T07:43:36;102658.56;;;17.65;100.00
19831;BME280;10076;52.008;4.708;2023-05-29T07:46:01;102655.44;;;17.71;100.00
19831;BME280;10076;52.008;4.708;2023-05-29T07:48:27;102661.19;;;17.90;100.00
19831;BME280;10076;52.008;4.708;2023-05-29T07:50:52;102655.13;;;17.88;100.00
19831;BME280;10076;52.008;4.708;2023-05-29T07:53:17;102653.94;;;18.15;100.00
19831;BME280;10076;52.008;4.708;2023-05-29T07:55:43;102660.38;;;18.25;100.00
19831;BME280;10076;52.008;4.708;2023-05-29T07:58:08;102661.63;;;18.32;100.00
19831;BME280;10076;52.008;4.708;2023-05-29T08:00:36;102665.94;;;18.22;100.00
19831;BME280;10076;52.008;4.708;2023-05-29T08:03:03;102665.19;;;18.20;100.00
19831;BME280;10076;52.008;4.708;2023-05-29T08:05:28;102658.59;;;18.36;100.00
19831;BME280;10076;52.008;4.708;2023-05-29T08:07:54;102662.66;;;18.42;100.00
19831;BME280;10076;52.008;4.708;2023-05-29T08:10:19;102668.97;;;18.41;100.00
19831;BME280;10076;52.008;4.708;2023-05-29T08:12:45;102663.34;;;18.33;100.00
19831;BME280;10076;52.008;4.708;2023-05-29T08:15:10;102664.94;;;18.35;100.00
19831;BME280;10076;52.008;4.708;2023-05-29T08:17:36;102672.50;;;18.65;100.00
19831;BME280;10076;52.008;4.708;2023-05-29T08:20:02;102668.03;;;18.76;100.00
19831;BME280;10076;52.008;4.708;2023-05-29T08:22:32;102666.09;;;19.12;100.00
19831;BME280;10076;52.008;4.708;2023-05-29T08:24:58;102672.22;;;19.14;100.00
19831;BME280;10076;52.008;4.708;2023-05-29T08:27:24;102679.91;;;19.19;100.00
19831;BME280;10076;52.008;4.708;2023-05-29T08:29:49;102682.00;;;19.37;100.00
19831;BME280;10076;52.008;4.708;2023-05-29T08:32:15;102686.03;;;19.42;100.00
19831;BME280;10076;52.008;4.708;2023-05-29T08:34:40;102683.97;;;19.46;100.00
19831;BME280;10076;52.008;4.708;2023-05-29T08:37:06;102680.06;;;19.72;100.00
19831;BME280;10076;52.008;4.708;2023-05-29T08:39:32;102677.88;;;19.77;100.00
19831;BME280;10076;52.008;4.708;2023-05-29T08:42:25;102676.91;;;19.78;100.00
19831;BME280;10076;52.008;4.708;2023-05-29T08:44:53;102683.50;;;19.85;100.00
19831;BME280;10076;52.008;4.708;2023-05-29T08:47:22;102686.81;;;19.99;100.00
19831;BME280;10076;52.008;4.708;2023-05-29T08:49:55;102689.13;;;20.04;100.00
19831;BME280;10076;52.008;4.708;2023-05-29T08:52:23;102693.72;;;19.91;100.00
19831;BME280;10076;52.008;4.708;2023-05-29T08:54:51;102698.72;;;20.17;100.00
19831;BME280;10076;52.008;4.708;2023-05-29T08:57:17;102701.25;;;20.29;100.00
19831;BME280;10076;52.008;4.708;2023-05-29T08:59:43;102703.38;;;20.57;100.00
19831;BME280;10076;52.008;4.708;2023-05-29T09:02:11;102701.38;;;20.70;100.00
19831;BME280;10076;52.008;4.708;2023-05-29T09:04:41;102697.50;;;20.74;100.00
19831;BME280;10076;52.008;4.708;2023-05-29T09:07:07;102703.13;;;21.02;100.00
19831;BME280;10076;52.008;4.708;2023-05-29T09:09:33;102702.72;;;21.07;100.00
19831;BME280;10076;52.008;4.708;2023-05-29T09:11:59;102701.41;;;21.22;100.00
19831;BME280;10076;52.008;4.708;2023-05-29T09:14:37;102705.13;;;21.51;100.00
19831;BME280;10076;52.008;4.708;2023-05-29T09:17:05;102703.72;;;21.47;100.00
19831;BME280;10076;52.008;4.708;2023-05-29T09:19:32;102701.47;;;21.52;100.00
19831;BME280;10076;52.008;4.708;2023-05-29T09:22:05;102703.25;;;21.62;99.94
19831;BME280;10076;52.008;4.708;2023-05-29T09:24:34;102709.22;;;21.65;99.84
19831;BME280;10076;52.008;4.708;2023-05-29T09:27:01;102698.88;;;21.91;98.46
19831;BME280;10076;52.008;4.708;2023-05-29T09:29:30;102713.38;;;22.57;97.30
19831;BME280;10076;52.008;4.708;2023-05-29T09:31:56;102705.19;;;23.25;89.07
19831;BME280;10076;52.008;4.708;2023-05-29T09:34:24;102703.94;;;23.65;85.24
19831;BME280;10076;52.008;4.708;2023-05-29T09:36:51;102704.00;;;23.37;84.64
19831;BME280;10076;52.008;4.708;2023-05-29T09:39:17;102697.94;;;23.25;88.02
19831;BME280;10076;52.008;4.708;2023-05-29T09:41:44;102696.66;;;23.29;84.23
19831;BME280;10076;52.008;4.708;2023-05-29T09:44:13;102699.41;;;23.01;84.64
19831;BME280;10076;52.008;4.708;2023-05-29T09:46:42;102697.13;;;23.15;88.54
19831;BME280;10076;52.008;4.708;2023-05-29T09:49:10;102695.84;;;23.65;84.89
19831;BME280;10076;52.008;4.708;2023-05-29T09:51:36;102692.41;;;24.45;79.78
19831;BME280;10076;52.008;4.708;2023-05-29T09:54:15;102690.06;;;25.70;73.10
19831;BME280;10076;52.008;4.708;2023-05-29T09:56:44;102694.94;;;26.82;65.09
19831;BME280;10076;52.008;4.708;2023-05-29T09:59:11;102694.94;;;27.62;60.98
19831;BME280;10076;52.008;4.708;2023-05-29T10:01:39;102688.47;;;28.09;58.02
19831;BME280;10076;52.008;4.708;2023-05-29T10:04:06;102688.97;;;28.20;55.60
19831;BME280;10076;52.008;4.708;2023-05-29T10:06:32;102691.16;;;28.25;55.40
19831;BME280;10076;52.008;4.708;2023-05-29T10:09:01;102694.28;;;28.66;53.93
19831;BME280;10076;52.008;4.708;2023-05-29T10:11:27;102691.06;;;29.30;52.43
19831;BME280;10076;52.008;4.708;2023-05-29T10:13:53;102699.03;;;29.83;50.32
19831;BME280;10076;52.008;4.708;2023-05-29T10:16:21;102690.03;;;30.61;47.59
19831;BME280;10076;52.008;4.708;2023-05-29T10:18:53;102698.25;;;30.82;47.82
19831;BME280;10076;52.008;4.708;2023-05-29T10:21:24;102695.22;;;30.77;46.50
19831;BME280;10076;52.008;4.708;2023-05-29T10:23:52;102702.91;;;31.29;45.21
19831;BME280;10076;52.008;4.708;2023-05-29T10:26:26;102694.81;;;31.42;44.60
19831;BME280;10076;52.008;4.708;2023-05-29T10:29:01;102696.13;;;31.19;44.52
19831;BME280;10076;52.008;4.708;2023-05-29T10:37:21;102686.53;;;31.84;44.51
19831;BME280;10076;52.008;4.708;2023-05-29T10:39:51;102691.06;;;31.70;43.15
19831;BME280;10076;52.008;4.708;2023-05-29T10:42:46;102688.47;;;31.96;42.65
19831;BME280;10076;52.008;4.708;2023-05-29T10:50:46;102684.28;;;34.15;38.30
19831;BME280;10076;52.008;4.708;2023-05-29T10:53:16;102684.34;;;34.89;37.78
19831;BME280;10076;52.008;4.708;2023-05-29T10:55:42;102681.94;;;35.23;36.58
19831;BME280;10076;52.008;4.708;2023-05-29T10:58:14;102681.34;;;35.46;36.88
19831;BME280;10076;52.008;4.708;2023-05-29T11:00:41;102689.75;;;36.58;35.56
19831;BME280;10076;52.008;4.708;2023-05-29T11:03:08;102689.44;;;37.18;34.49
19831;BME280;10076;52.008;4.708;2023-05-29T11:05:33;102681.13;;;36.95;32.65
19831;BME280;10076;52.008;4.708;2023-05-29T11:08:00;102673.94;;;38.20;32.40
19831;BME280;10076;52.008;4.708;2023-05-29T11:18:58;102680.66;;;38.52;30.10
19831;BME280;10076;52.008;4.708;2023-05-29T11:24:38;102669.84;;;38.62;30.09
19831;BME280;10076;52.008;4.708;2023-05-29T11:27:05;102677.25;;;38.89;29.50
19831;BME280;10076;52.008;4.708;2023-05-29T11:29:33;102691.50;;;38.03;30.12
19831;BME280;10076;52.008;4.708;2023-05-29T11:32:02;102675.47;;;37.54;30.30
19831;BME280;10076;52.008;4.708;2023-05-29T11:34:28;102671.03;;;37.41;30.50
19831;BME280;10076;52.008;4.708;2023-05-29T11:36:56;102679.56;;;37.63;30.01
19831;BME280;10076;52.008;4.708;2023-05-29T11:39:21;102670.47;;;38.24;29.59
19831;BME280;10076;52.008;4.708;2023-05-29T11:41:50;102676.81;;;38.53;28.97
19831;BME280;10076;52.008;4.708;2023-05-29T11:44:15;102682.25;;;38.76;28.80
19831;BME280;10076;52.008;4.708;2023-05-29T11:46:41;102676.44;;;38.61;28.77
19831;BME280;10076;52.008;4.708;2023-05-29T11:49:06;102686.31;;;39.17;28.80
19831;BME280;10076;52.008;4.708;2023-05-29T11:51:31;102680.16;;;38.82;28.82
19831;BME280;10076;52.008;4.708;2023-05-29T11:53:57;102679.91;;;38.68;28.47
19831;BME280;10076;52.008;4.708;2023-05-29T11:56:26;102670.00;;;38.16;29.10
19831;BME280;10076;52.008;4.708;2023-05-29T11:58:52;102674.25;;;39.23;28.25
19831;BME280;10076;52.008;4.708;2023-05-29T12:01:21;102679.81;;;39.77;28.03
19831;BME280;10076;52.008;4.708;2023-05-29T12:03:48;102674.31;;;38.95;28.30
19831;BME280;10076;52.008;4.708;2023-05-29T12:06:14;102681.97;;;39.21;28.31
19831;BME280;10076;52.008;4.708;2023-05-29T12:08:39;102670.88;;;38.72;28.47
19831;BME280;10076;52.008;4.708;2023-05-29T12:11:05;102668.41;;;39.03;28.06
19831;BME280;10076;52.008;4.708;2023-05-29T12:13:31;102662.63;;;38.33;28.33
19831;BME280;10076;52.008;4.708;2023-05-29T12:15:57;102664.56;;;38.49;28.69
19831;BME280;10076;52.008;4.708;2023-05-29T12:18:25;102661.34;;;38.24;28.65
19831;BME280;10076;52.008;4.708;2023-05-29T12:20:56;102665.28;;;37.77;28.81
19831;BME280;10076;52.008;4.708;2023-05-29T12:23:22;102650.31;;;37.39;29.08
19831;BME280;10076;52.008;4.708;2023-05-29T12:25:47;102654.38;;;36.44;30.42
19831;BME280;10076;52.008;4.708;2023-05-29T12:28:16;102649.00;;;36.49;30.45
19831;BME280;10076;52.008;4.708;2023-05-29T12:30:44;102646.50;;;36.00;30.18
19831;BME280;10076;52.008;4.708;2023-05-29T12:33:31;102648.84;;;36.14;29.64
19831;BME280;10076;52.008;4.708;2023-05-29T12:36:08;102647.25;;;36.36;30.14
19831;BME280;10076;52.008;4.708;2023-05-29T12:38:50;102637.59;;;34.65;30.67
19831;BME280;10076;52.008;4.708;2023-05-29T12:41:31;102638.47;;;33.39;32.71
19831;BME280;10076;52.008;4.708;2023-05-29T12:44:00;102642.53;;;32.19;32.89
19831;BME280;10076;52.008;4.708;2023-05-29T12:46:26;102639.16;;;30.95;35.16
19831;BME280;10076;52.008;4.708;2023-05-29T12:48:53;102638.13;;;30.19;36.43
19831;BME280;10076;52.008;4.708;2023-05-29T12:51:23;102641.19;;;29.81;37.00
19831;BME280;10076;52.008;4.708;2023-05-29T12:53:49;102636.63;;;29.30;37.45
19831;BME280;10076;52.008;4.708;2023-05-29T12:56:15;102641.03;;;29.31;38.38
19831;BME280;10076;52.008;4.708;2023-05-29T12:58:40;102638.97;;;29.19;39.06
19831;BME280;10076;52.008;4.708;2023-05-29T13:01:12;102649.56;;;28.47;40.42
19831;BME280;10076;52.008;4.708;2023-05-29T13:03:38;102643.19;;;28.32;41.22
19831;BME280;10076;52.008;4.708;2023-05-29T13:06:03;102641.56;;;28.23;42.08
19831;BME280;10076;52.008;4.708;2023-05-29T13:08:29;102639.53;;;28.17;43.37